Time;durP1;ratioP1;P1;durP2;ratioP2;P2;SDS_P1;SDS_P2;PMS_P1;PMS_P2;Temp;Humidity;BMP_temperature;BMP_pressure;BME280_temperature;BME280_humidity;BME280_pressure;Samples;Min_cycle;Max_cycle;Signal;HPM_P1;HPM_P2
2023/07/02 00:00:09;;;;;;;4.25;1.10;;;16.00;99.90;;;15.32;100.00;97110.91;5039877;28;20106;-75
2023/07/02 00:02:37;;;;;;;6.53;1.38;;;16.10;99.90;;;15.19;100.00;97116.13;5042695;28;20053;-74
2023/07/02 00:05:06;;;;;;;4.47;1.52;;;16.10;99.90;;;15.25;100.00;97108.72;5043367;28;20114;-75
2023/07/02 00:07:36;;;;;;;6.20;1.40;;;16.00;99.90;;;15.26;100.00;97101.72;5041069;28;20132;-75
2023/07/02 00:10:04;;;;;;;9.05;1.98;;;16.00;99.90;;;15.18;100.00;97110.09;5041087;28;20480;-75
2023/07/02 00:12:32;;;;;;;3.72;1.00;;;16.00;99.90;;;15.21;100.00;97101.19;5040247;28;20141;-75
2023/07/02 00:15:00;;;;;;;3.15;1.45;;;16.00;99.90;;;15.12;100.00;97102.69;5040786;28;20051;-75
2023/07/02 00:17:27;;;;;;;3.20;1.23;;;15.90;99.90;;;15.23;100.00;97102.75;5021302;28;20140;-75
2023/07/02 00:19:54;;;;;;;2.30;1.20;;;15.90;99.90;;;15.11;100.00;97093.16;5039119;28;20053;-74
2023/07/02 00:22:24;;;;;;;3.50;1.38;;;15.90;99.90;;;14.99;100.00;97102.66;5035807;28;20059;-73
2023/07/02 00:24:55;;;;;;;5.88;1.65;;;15.90;99.90;;;14.98;100.00;97106.22;5039644;28;20134;-73
2023/07/02 00:27:22;;;;;;;4.53;1.75;;;15.80;99.90;;;15.01;100.00;97102.56;5040716;28;20509;-73
2023/07/02 00:29:50;;;;;;;5.35;1.52;;;15.80;99.90;;;14.93;100.00;97097.84;5041042;28;20118;-75
2023/07/02 00:32:17;;;;;;;4.18;1.40;;;15.80;99.90;;;14.93;100.00;97100.47;5040692;28;20045;-73
2023/07/02 00:34:44;;;;;;;4.47;1.75;;;15.80;99.90;;;14.88;100.00;97105.16;5041407;28;20045;-73
2023/07/02 00:37:11;;;;;;;3.75;1.42;;;15.80;99.90;;;15.03;100.00;97113.75;5041284;28;20071;-75
2023/07/02 00:39:38;;;;;;;5.60;1.73;;;15.80;99.90;;;14.83;100.00;97115.94;5045693;28;20053;-73
2023/07/02 00:42:05;;;;;;;6.28;1.92;;;15.80;99.90;;;14.87;100.00;97113.09;5041123;28;20102;-73
2023/07/02 00:44:32;;;;;;;5.15;1.60;;;15.80;99.90;;;14.78;100.00;97118.03;5043730;28;20052;-74
2023/07/02 00:46:59;;;;;;;3.63;1.30;;;15.70;99.90;;;14.82;100.00;97116.88;5044449;28;20188;-73
2023/07/02 00:49:27;;;;;;;6.50;1.50;;;15.60;99.90;;;14.91;100.00;97114.56;5038171;28;20049;-73
2023/07/02 00:51:54;;;;;;;5.30;1.30;;;15.70;99.90;;;14.84;100.00;97125.44;5044155;28;20138;-75
2023/07/02 00:54:21;;;;;;;4.10;1.30;;;15.70;99.90;;;14.60;100.00;97129.69;5043789;28;20102;-75
2023/07/02 00:56:48;;;;;;;8.38;1.75;;;15.60;99.90;;;14.63;100.00;97135.53;5039003;28;20049;-75
2023/07/02 00:59:16;;;;;;;5.03;1.40;;;15.60;99.90;;;14.82;100.00;97136.94;5040799;28;20458;-75
2023/07/02 01:01:49;;;;;;;5.30;1.30;;;15.60;99.90;;;14.70;100.00;97146.41;5026295;28;20072;-73
2023/07/02 01:04:18;;;;;;;8.52;1.50;;;15.60;99.90;;;14.63;100.00;97148.59;5038706;28;20136;-75
2023/07/02 01:06:45;;;;;;;6.93;2.15;;;15.50;99.90;;;14.72;100.00;97160.22;5024457;28;20501;-75
2023/07/02 01:09:12;;;;;;;5.72;1.60;;;15.50;99.90;;;14.70;100.00;97158.66;5036832;28;20473;-75
2023/07/02 01:12:08;;;;;;;9.05;1.73;;;15.50;99.90;;;14.75;100.00;97157.41;5044036;28;20103;-74
2023/07/02 01:14:41;;;;;;;5.63;2.30;;;15.50;99.90;;;14.62;100.00;97159.16;5032638;28;20107;-75
2023/07/02 01:17:10;;;;;;;6.90;2.15;;;15.40;99.90;;;14.71;100.00;97176.84;5041752;28;20123;-75
2023/07/02 01:19:53;;;;;;;5.13;1.55;;;15.50;99.90;;;14.71;100.00;97166.41;5035783;28;20053;-75
2023/07/02 01:22:27;;;;;;;7.43;2.80;;;15.50;99.90;;;14.75;100.00;97165.22;5019457;28;20045;-75
2023/07/02 01:24:55;;;;;;;7.78;2.53;;;15.50;99.90;;;14.59;100.00;97175.84;5043390;28;20057;-75
2023/07/02 01:27:22;;;;;;;9.75;3.22;;;15.50;99.90;;;14.61;100.00;97165.31;5045644;28;20134;-75
2023/07/02 01:29:53;;;;;;;9.18;3.28;;;15.40;99.90;;;14.61;100.00;97160.09;5045173;28;20351;-76
2023/07/02 01:32:21;;;;;;;8.40;2.88;;;15.40;99.90;;;14.77;100.00;97162.53;5043899;28;20156;-74
2023/07/02 01:34:49;;;;;;;13.05;4.22;;;15.30;99.90;;;14.71;100.00;97152.47;5044912;28;20045;-75
2023/07/02 01:37:16;;;;;;;10.40;3.63;;;15.30;99.90;;;14.51;100.00;97154.59;5046994;28;20493;-75
2023/07/02 01:39:44;;;;;;;8.85;3.80;;;15.40;99.90;;;14.50;100.00;97158.13;5048541;28;20060;-75
2023/07/02 01:42:17;;;;;;;9.60;3.80;;;15.30;99.90;;;14.44;100.00;97150.72;5044287;28;20079;-75
2023/07/02 01:44:47;;;;;;;9.48;4.28;;;15.30;99.90;;;14.45;100.00;97160.22;5041931;28;20083;-75
2023/07/02 01:47:15;;;;;;;7.90;4.07;;;15.20;99.90;;;14.47;100.00;97163.56;5043150;28;20045;-75
2023/07/02 01:49:43;;;;;;;7.15;3.00;;;15.20;99.90;;;14.51;100.00;97169.44;5044429;28;20052;-74
2023/07/02 01:52:10;;;;;;;13.63;4.45;;;15.20;99.90;;;14.47;100.00;97175.78;5041466;28;20199;-75
2023/07/02 01:54:37;;;;;;;9.20;2.67;;;15.20;99.90;;;14.43;100.00;97181.19;5028028;28;20057;-74
2023/07/02 01:57:05;;;;;;;11.55;3.90;;;15.20;99.90;;;14.48;100.00;97187.91;5042850;28;20703;-74
2023/07/02 01:59:32;;;;;;;8.65;3.22;;;15.20;99.90;;;14.32;100.00;97199.34;5044486;28;20080;-74
2023/07/02 02:02:02;;;;;;;7.75;2.67;;;15.20;99.90;;;14.33;100.00;97208.84;5045822;28;20095;-74
2023/07/02 02:04:29;;;;;;;6.00;2.67;;;15.20;99.90;;;14.33;100.00;97226.28;5045374;28;20501;-74
2023/07/02 02:06:56;;;;;;;6.03;2.65;;;15.10;99.90;;;14.35;100.00;97227.88;5054700;28;20953;-74
2023/07/02 02:09:23;;;;;;;6.13;2.45;;;15.20;99.90;;;14.39;100.00;97231.09;5030882;28;20119;-75
2023/07/02 02:11:52;;;;;;;7.93;2.60;;;15.20;99.90;;;14.32;100.00;97238.50;5045723;28;20671;-73
2023/07/02 02:14:19;;;;;;;7.57;2.75;;;15.20;99.90;;;14.25;100.00;97241.59;5040238;28;20079;-74
2023/07/02 02:16:46;;;;;;;7.53;2.38;;;15.20;99.90;;;14.16;100.00;97241.25;5044295;28;20052;-75
2023/07/02 02:19:14;;;;;;;7.80;2.40;;;15.10;99.90;;;14.12;100.00;97247.59;5038648;28;20385;-73
2023/07/02 02:21:42;;;;;;;10.65;2.58;;;15.00;99.90;;;13.93;100.00;97266.13;5043959;28;20049;-74
2023/07/02 02:24:10;;;;;;;6.68;2.47;;;14.90;99.90;;;13.98;100.00;97266.72;5027241;28;20055;-73
2023/07/02 02:26:37;;;;;;;4.97;2.72;;;14.90;99.90;;;13.95;100.00;97263.44;5043525;28;20052;-73
2023/07/02 02:29:04;;;;;;;6.47;2.90;;;14.90;99.90;;;13.86;100.00;97267.44;5041378;28;20049;-75
2023/07/02 02:31:31;;;;;;;12.98;3.28;;;14.80;99.90;;;13.85;100.00;97278.81;5042084;28;20057;-75
2023/07/02 02:33:58;;;;;;;6.38;2.72;;;14.70;99.90;;;13.80;100.00;97271.28;5044799;28;20047;-75
2023/07/02 02:36:25;;;;;;;10.25;3.17;;;14.70;99.90;;;13.80;100.00;97271.28;5046484;28;20045;-75
2023/07/02 02:38:52;;;;;;;5.63;2.75;;;14.70;99.90;;;13.80;100.00;97273.88;5046056;28;20455;-75
2023/07/02 02:41:20;;;;;;;11.70;3.47;;;14.70;99.90;;;13.83;100.00;97264.19;5042089;28;20060;-75
2023/07/02 02:43:47;;;;;;;8.82;2.70;;;14.60;99.90;;;13.79;100.00;97269.56;5018092;28;20085;-74
2023/07/02 02:46:21;;;;;;;9.60;3.45;;;14.60;99.90;;;13.73;100.00;97264.75;5046892;28;20126;-75
2023/07/02 02:48:49;;;;;;;8.43;2.83;;;14.60;99.90;;;13.73;100.00;97256.06;5043790;28;20041;-73
2023/07/02 02:51:17;;;;;;;9.90;3.17;;;14.60;99.90;;;13.71;100.00;97264.00;5043306;28;20484;-75
2023/07/02 02:53:44;;;;;;;10.77;3.85;;;14.60;99.90;;;13.73;100.00;97258.69;5043888;28;20493;-75
2023/07/02 02:56:11;;;;;;;8.45;3.63;;;14.50;99.90;;;13.49;100.00;97258.41;5048350;28;20049;-75
2023/07/02 02:58:38;;;;;;;12.23;4.70;;;14.50;99.90;;;13.48;100.00;97264.50;5043960;28;20081;-72
2023/07/02 03:01:10;;;;;;;9.50;3.33;;;14.40;99.90;;;13.41;100.00;97258.84;5043411;28;20041;-75
2023/07/02 03:03:44;;;;;;;11.80;4.28;;;14.40;99.90;;;13.42;100.00;97254.47;5027123;28;20060;-75
2023/07/02 03:06:14;;;;;;;12.02;3.65;;;14.30;99.90;;;13.37;100.00;97252.97;5045296;28;20050;-75
2023/07/02 03:08:42;;;;;;;10.88;4.35;;;14.30;99.90;;;13.41;100.00;97253.66;5046424;28;20055;-74
2023/07/02 03:11:09;;;;;;;10.25;4.25;;;14.30;99.90;;;13.52;100.00;97250.38;5041828;28;20114;-75
2023/07/02 03:13:36;;;;;;;8.82;4.38;;;14.30;99.90;;;13.54;100.00;97251.13;5042452;28;20048;-75
2023/07/02 03:16:03;;;;;;;8.85;3.75;;;14.30;99.90;;;13.44;100.00;97236.97;5042408;28;20073;-74
2023/07/02 03:18:30;;;;;;;10.20;4.55;;;14.30;99.90;;;13.46;100.00;97243.78;5045597;28;20168;-75
2023/07/02 03:20:59;;;;;;;14.10;5.57;;;14.30;99.90;;;13.47;100.00;97242.81;5044743;28;20059;-75
2023/07/02 03:23:26;;;;;;;13.48;5.30;;;14.20;99.90;;;13.47;100.00;97242.00;5026471;28;20536;-75
2023/07/02 03:25:53;;;;;;;13.30;5.22;;;14.20;99.90;;;13.36;100.00;97242.63;5060246;28;20532;-75
2023/07/02 03:28:20;;;;;;;12.70;5.18;;;14.20;99.90;;;13.44;100.00;97247.41;5039097;28;20131;-75
2023/07/02 03:30:47;;;;;;;8.23;4.72;;;14.20;99.90;;;13.39;100.00;97247.69;5042982;28;20102;-75
2023/07/02 03:33:15;;;;;;;15.43;5.68;;;14.20;99.90;;;13.31;100.00;97248.09;5042465;28;20140;-75
2023/07/02 03:35:42;;;;;;;9.80;4.75;;;14.20;99.90;;;13.33;100.00;97258.47;5044879;28;20140;-75
2023/07/02 03:38:09;;;;;;;12.35;4.93;;;14.10;99.90;;;13.39;100.00;97253.72;5044862;28;20049;-75
2023/07/02 03:40:36;;;;;;;10.82;5.13;;;14.20;99.90;;;13.28;100.00;97265.72;5044159;28;20053;-75
2023/07/02 03:43:05;;;;;;;13.15;5.60;;;14.20;99.90;;;13.26;100.00;97264.94;5042217;28;20045;-75
2023/07/02 03:45:32;;;;;;;12.57;4.85;;;14.20;99.90;;;13.37;100.00;97265.19;5037839;28;20050;-75
2023/07/02 03:47:59;;;;;;;10.75;4.75;;;14.20;99.90;;;13.21;100.00;97270.41;5046757;28;20049;-75
2023/07/02 03:50:44;;;;;;;16.73;5.65;;;14.20;99.90;;;13.26;100.00;97280.56;5043060;28;20048;-75
2023/07/02 03:53:12;;;;;;;13.88;5.10;;;14.20;99.90;;;13.21;100.00;97287.81;5044191;28;20168;-72
2023/07/02 03:55:40;;;;;;;10.68;4.50;;;14.10;99.90;;;13.26;100.00;97284.00;5042241;28;20068;-75
2023/07/02 03:58:07;;;;;;;15.40;6.60;;;14.10;99.90;;;13.26;100.00;97291.81;5041887;28;20101;-75
2023/07/02 04:00:34;;;;;;;17.60;5.95;;;14.10;99.90;;;13.32;100.00;97293.25;5060437;28;20057;-75
2023/07/02 04:03:02;;;;;;;17.50;7.05;;;14.10;99.90;;;13.29;100.00;97296.06;5044693;28;20069;-75
2023/07/02 04:05:29;;;;;;;14.13;5.95;;;14.10;99.90;;;13.41;100.00;97294.50;5045893;28;20041;-75
2023/07/02 04:07:56;;;;;;;19.35;7.03;;;14.10;99.90;;;13.51;100.00;97295.66;5042152;28;20049;-74
2023/07/02 04:10:23;;;;;;;15.60;6.22;;;14.10;99.90;;;13.60;100.00;97298.53;5042085;28;20089;-73
2023/07/02 04:12:50;;;;;;;21.02;7.40;;;14.20;99.90;;;13.50;100.00;97286.13;5043769;28;20060;-75
2023/07/02 04:15:18;;;;;;;17.13;6.60;;;14.20;99.90;;;13.53;100.00;97293.78;5043351;28;20076;-75
2023/07/02 04:17:45;;;;;;;19.15;6.90;;;14.30;99.90;;;13.56;100.00;97294.44;5041582;28;20056;-75
2023/07/02 04:20:12;;;;;;;20.88;7.93;;;14.30;99.90;;;13.57;100.00;97300.47;5041732;28;20040;-74
2023/07/02 04:22:39;;;;;;;20.38;7.80;;;14.30;99.90;;;13.57;100.00;97287.44;5056407;28;20053;-74
2023/07/02 04:25:06;;;;;;;16.65;6.90;;;14.20;99.90;;;13.55;100.00;97297.16;5042736;28;20072;-74
2023/07/02 04:27:48;;;;;;;18.05;7.22;;;14.20;99.90;;;13.63;100.00;97297.50;5037168;28;20061;-74
2023/07/02 04:30:18;;;;;;;16.70;7.05;;;14.20;99.90;;;13.61;100.00;97301.97;5040217;28;20045;-75
2023/07/02 04:32:45;;;;;;;22.08;8.68;;;14.20;99.90;;;13.42;100.00;97307.44;5044065;28;20068;-75
2023/07/02 04:35:12;;;;;;;19.77;9.45;;;14.20;99.90;;;13.62;100.00;97308.06;5042399;28;20052;-75
2023/07/02 04:37:39;;;;;;;16.58;7.95;;;14.20;99.90;;;13.56;100.00;97301.41;5041235;28;20045;-75
2023/07/02 04:40:10;;;;;;;18.58;8.40;;;14.30;99.90;;;13.67;100.00;97303.41;5041894;28;20053;-75
2023/07/02 04:42:46;;;;;;;20.15;8.75;;;14.20;99.90;;;13.73;100.00;97309.09;5042854;28;20071;-75
2023/07/02 04:45:15;;;;;;;19.55;8.05;;;14.20;99.90;;;13.71;100.00;97302.28;5041539;28;20637;-75
2023/07/02 04:47:45;;;;;;;20.77;8.23;;;14.20;99.90;;;13.75;100.00;97299.41;5041137;28;20110;-75
2023/07/02 04:50:12;;;;;;;19.02;7.55;;;14.40;99.90;;;13.81;100.00;97308.63;5043323;28;20145;-74
2023/07/02 04:52:39;;;;;;;18.15;8.32;;;14.40;99.90;;;13.80;100.00;97307.78;5044284;28;20045;-75
2023/07/02 04:55:07;;;;;;;25.58;9.00;;;14.30;99.90;;;13.71;100.00;97312.72;5041810;28;20120;-74
2023/07/02 04:57:34;;;;;;;16.88;7.63;;;14.40;99.90;;;13.93;100.00;97313.09;5043017;28;20514;-75
2023/07/02 05:00:03;;;;;;;19.98;9.88;;;14.30;99.90;;;13.81;100.00;97309.47;5040557;28;20076;-75
2023/07/02 05:02:30;;;;;;;16.02;7.72;;;14.30;99.90;;;13.97;100.00;97313.75;5041775;28;20095;-75
2023/07/02 05:04:58;;;;;;;20.98;9.85;;;14.30;99.90;;;13.86;100.00;97309.19;5043676;28;20049;-75
2023/07/02 05:07:25;;;;;;;21.00;9.98;;;14.40;99.90;;;13.96;100.00;97312.09;5041199;28;20052;-75
2023/07/02 05:09:52;;;;;;;16.25;9.18;;;14.50;99.90;;;14.04;100.00;97320.28;5040332;28;20060;-73
2023/07/02 05:12:20;;;;;;;19.67;8.93;;;14.50;99.90;;;14.07;100.00;97314.03;5057338;28;20065;-75
2023/07/02 05:14:47;;;;;;;19.20;9.00;;;14.50;99.90;;;14.18;100.00;97314.22;5041875;28;21008;-75
2023/07/02 05:17:14;;;;;;;18.35;9.15;;;14.60;99.90;;;14.25;100.00;97310.28;5039762;28;20153;-74
2023/07/02 05:19:42;;;;;;;20.10;8.43;;;14.70;99.90;;;14.32;100.00;97313.38;5042098;28;20052;-74
2023/07/02 05:22:10;;;;;;;24.25;9.82;;;14.70;99.90;;;14.31;100.00;97309.94;5040813;28;20080;-74
2023/07/02 05:24:37;;;;;;;19.73;9.23;;;14.80;99.90;;;14.58;100.00;97311.78;5039425;28;20057;-75
2023/07/02 05:27:05;;;;;;;21.27;10.02;;;15.00;99.90;;;14.42;100.00;97317.94;5042435;28;20126;-75
2023/07/02 05:29:32;;;;;;;18.17;10.10;;;14.90;99.90;;;14.59;100.00;97316.91;5041692;28;20064;-75
2023/07/02 05:31:59;;;;;;;19.90;9.55;;;15.00;99.90;;;14.73;100.00;97305.56;5038489;28;20060;-75
2023/07/02 05:34:27;;;;;;;24.67;8.98;;;15.10;99.90;;;14.64;100.00;97317.47;5042511;28;20073;-75
2023/07/02 05:36:54;;;;;;;24.40;10.15;;;15.10;99.90;;;14.59;100.00;97314.28;5044698;28;20132;-75
2023/07/02 05:39:22;;;;;;;21.08;10.57;;;15.00;99.90;;;14.67;100.00;97316.44;5039671;28;20095;-75
2023/07/02 05:41:49;;;;;;;20.90;10.82;;;15.10;99.90;;;14.68;100.00;97317.25;5040486;28;20524;-75
2023/07/02 05:44:17;;;;;;;20.23;10.02;;;15.20;99.90;;;14.87;100.00;97306.47;5045405;28;20045;-73
2023/07/02 05:46:45;;;;;;;17.92;9.90;;;15.30;99.90;;;14.69;100.00;97314.56;5044283;28;20516;-74
2023/07/02 05:49:12;;;;;;;18.65;9.45;;;15.30;99.90;;;14.82;100.00;97317.22;5043715;28;20048;-75
2023/07/02 05:51:39;;;;;;;28.25;11.95;;;15.20;99.90;;;14.62;100.00;97316.72;5042180;28;20107;-75
2023/07/02 05:54:07;;;;;;;21.27;11.32;;;15.20;99.90;;;14.85;100.00;97317.88;5041754;28;20052;-71
2023/07/02 05:56:34;;;;;;;16.83;9.32;;;15.20;99.90;;;14.96;100.00;97313.72;5042018;28;20057;-75
2023/07/02 05:59:01;;;;;;;23.08;10.77;;;15.30;99.90;;;15.11;100.00;97307.50;5039270;28;20049;-74
2023/07/02 06:01:28;;;;;;;21.52;10.68;;;15.60;99.90;;;15.16;100.00;97307.19;5039664;28;20093;-75
2023/07/02 06:03:55;;;;;;;22.65;11.50;;;15.60;99.90;;;15.30;100.00;97312.34;5022118;28;20091;-75
2023/07/02 06:06:24;;;;;;;22.38;11.68;;;15.70;99.90;;;15.29;100.00;97302.84;5039797;28;20052;-75
2023/07/02 06:08:51;;;;;;;23.13;12.27;;;15.80;99.90;;;15.44;100.00;97299.22;5040164;28;20044;-75
2023/07/02 06:11:18;;;;;;;20.45;10.85;;;15.80;99.90;;;15.58;100.00;97300.06;5040131;28;20045;-75
2023/07/02 06:13:45;;;;;;;23.77;12.07;;;15.90;99.90;;;15.62;100.00;97305.00;5042709;28;20128;-75
2023/07/02 06:16:12;;;;;;;22.52;12.23;;;16.00;99.90;;;15.76;100.00;97301.47;5046015;28;20075;-75
2023/07/02 06:18:39;;;;;;;20.80;11.82;;;15.90;99.90;;;15.87;100.00;97301.59;5044316;28;20095;-75
2023/07/02 06:21:07;;;;;;;27.52;14.57;;;16.00;99.90;;;15.59;100.00;97292.09;5045660;28;20136;-75
2023/07/02 06:23:44;;;;;;;25.20;14.27;;;15.90;99.90;;;15.60;100.00;97319.97;5048914;28;20050;-74
2023/07/02 06:26:11;;;;;;;25.33;12.75;;;16.00;99.90;;;15.98;100.00;97307.84;5045796;28;20053;-75
2023/07/02 06:28:39;;;;;;;25.88;14.25;;;16.10;99.90;;;15.67;100.00;97315.16;5044285;28;20085;-75
2023/07/02 06:31:06;;;;;;;26.40;13.93;;;16.20;99.90;;;15.90;100.00;97308.38;5039989;28;20045;-75
2023/07/02 06:33:34;;;;;;;22.13;12.65;;;16.20;99.90;;;16.01;100.00;97311.09;5046659;28;20103;-75
2023/07/02 06:36:01;;;;;;;30.30;14.80;;;16.20;99.90;;;15.93;100.00;97309.97;5047729;28;20037;-75
2023/07/02 06:38:28;;;;;;;26.27;14.25;;;16.30;99.90;;;16.11;100.00;97308.69;5047798;28;20056;-75
2023/07/02 06:40:55;;;;;;;29.13;15.50;;;16.40;99.90;;;15.71;100.00;97315.81;5040194;28;20141;-75
2023/07/02 06:43:22;;;;;;;29.63;15.90;;;16.30;99.90;;;15.92;100.00;97313.50;5045900;28;20051;-75
2023/07/02 06:45:49;;;;;;;32.58;18.38;;;16.20;99.90;;;15.77;100.00;97310.16;5043494;28;20659;-76
2023/07/02 06:48:20;;;;;;;47.38;18.58;;;16.30;99.90;;;15.97;100.00;97317.50;5041312;28;20053;-76
2023/07/02 06:50:48;;;;;;;37.05;18.52;;;16.50;99.90;;;15.68;100.00;97322.88;5044307;28;20055;-76
2023/07/02 06:53:16;;;;;;;31.95;18.40;;;16.30;99.90;;;16.00;100.00;97321.69;5044165;28;20049;-74
2023/07/02 06:55:46;;;;;;;29.60;17.30;;;16.40;99.90;;;16.37;100.00;97309.47;5042409;28;20513;-75
2023/07/02 06:58:13;;;;;;;29.23;17.42;;;16.50;99.90;;;16.14;100.00;97326.78;5046851;28;20052;-75
2023/07/02 07:00:40;;;;;;;33.42;18.73;;;16.30;99.90;;;15.68;100.00;97330.72;5060494;28;20439;-76
2023/07/02 07:03:07;;;;;;;31.75;19.48;;;16.20;99.90;;;15.81;100.00;97319.50;5046395;28;20068;-75
2023/07/02 07:05:35;;;;;;;40.33;19.13;;;16.40;99.90;;;16.07;100.00;97313.28;5045453;28;20053;-75
2023/07/02 07:08:02;;;;;;;33.60;19.95;;;16.40;99.90;;;16.32;100.00;97319.44;5030885;28;20065;-75
2023/07/02 07:10:33;;;;;;;33.45;19.20;;;16.60;99.90;;;16.22;100.00;97318.44;5043641;28;20840;-75
2023/07/02 07:13:04;;;;;;;35.22;20.80;;;16.60;99.90;;;16.23;100.00;97320.09;5046380;28;20145;-75
2023/07/02 07:15:36;;;;;;;38.28;21.23;;;16.60;99.90;;;16.39;100.00;97309.38;5041916;28;20232;-75
2023/07/02 07:18:04;;;;;;;32.58;20.65;;;16.70;99.90;;;16.55;100.00;97309.13;5043298;28;20076;-75
2023/07/02 07:20:31;;;;;;;36.13;21.50;;;17.00;99.90;;;16.75;100.00;97319.03;5046238;28;20055;-75
2023/07/02 07:22:58;;;;;;;35.65;20.88;;;17.10;99.90;;;16.76;100.00;97310.19;5042635;28;20497;-75
2023/07/02 07:25:26;;;;;;;36.15;20.98;;;17.10;99.90;;;16.92;100.00;97309.97;5044330;28;20491;-74
2023/07/02 07:27:53;;;;;;;37.67;20.60;;;17.20;99.90;;;16.79;100.00;97303.94;5041973;28;20056;-74
2023/07/02 07:30:23;;;;;;;32.60;18.90;;;17.00;99.90;;;16.94;100.00;97326.41;5043595;28;20064;-75
2023/07/02 07:32:52;;;;;;;34.30;19.40;;;17.10;99.90;;;16.63;100.00;97302.41;5041621;28;20054;-74
2023/07/02 07:35:21;;;;;;;30.65;17.88;;;17.00;99.90;;;16.93;100.00;97314.28;5043052;28;20042;-75
2023/07/02 07:37:49;;;;;;;35.80;18.45;;;17.00;99.90;;;17.08;100.00;97309.69;5046190;28;20081;-74
2023/07/02 07:40:17;;;;;;;32.95;19.50;;;17.10;99.90;;;17.29;100.00;97296.78;5028477;28;20128;-72
2023/07/02 07:42:44;;;;;;;35.08;19.17;;;17.30;99.90;;;17.12;100.00;97311.13;5028069;28;20053;-72
2023/07/02 07:45:12;;;;;;;35.88;20.95;;;17.30;99.90;;;17.29;100.00;97305.50;5046269;28;20049;-73
2023/07/02 07:47:39;;;;;;;31.83;17.70;;;17.50;99.90;;;17.40;100.00;97328.28;5044936;28;20457;-74
2023/07/02 07:50:11;;;;;;;32.83;19.00;;;17.40;99.90;;;17.68;100.00;97310.50;5043912;28;20489;-73
2023/07/02 07:52:43;;;;;;;38.03;20.45;;;17.60;99.90;;;17.46;100.00;97298.16;5042590;28;20041;-72
2023/07/02 07:55:10;;;;;;;;;;;17.70;99.90;;;17.65;100.00;97313.34;5043719;28;20515;-73
2023/07/02 07:57:37;;;;;;;33.40;18.45;;;17.90;99.90;;;17.52;100.00;97327.41;5042537;28;19960;-76
2023/07/02 08:00:11;;;;;;;38.40;20.77;;;17.80;99.90;;;17.21;100.00;97302.59;5042636;28;20041;-76
2023/07/02 08:02:39;;;;;;;34.42;18.95;;;17.70;99.90;;;17.60;100.00;97300.56;5042430;28;20060;-75
2023/07/02 08:05:07;;;;;;;32.30;19.38;;;17.80;99.90;;;17.83;100.00;97285.72;5038250;28;20118;-75
2023/07/02 08:07:34;;;;;;;36.78;19.40;;;17.80;99.90;;;17.99;100.00;97288.00;5042861;28;20050;-75
2023/07/02 08:10:02;;;;;;;37.15;18.98;;;18.10;99.90;;;17.30;100.00;97283.53;5044198;28;20068;-75
2023/07/02 08:12:29;;;;;;;34.88;19.55;;;18.00;99.90;;;17.43;100.00;97293.16;5041595;28;20049;-74
2023/07/02 08:14:59;;;;;;;36.78;19.92;;;17.80;99.90;;;18.15;100.00;97285.03;5044705;28;20143;-76
2023/07/02 08:17:27;;;;;;;33.97;19.48;;;18.10;99.90;;;18.09;100.00;97299.47;5044026;28;20130;-74
2023/07/02 08:19:54;;;;;;;37.97;19.42;;;18.10;99.90;;;17.98;100.00;97296.84;5042885;28;20065;-76
2023/07/02 08:22:21;;;;;;;34.78;18.52;;;18.20;99.90;;;17.67;100.00;97308.81;5023874;28;20103;-76
2023/07/02 08:24:49;;;;;;;35.15;19.90;;;17.90;99.90;;;17.65;100.00;97298.44;5021766;28;20080;-76
2023/07/02 08:27:21;;;;;;;37.35;19.30;;;17.90;99.90;;;18.05;100.00;97290.16;5040306;28;20060;-75
2023/07/02 08:29:48;;;;;;;38.10;20.17;;;18.10;99.90;;;18.28;100.00;97293.63;5041050;28;20080;-75
2023/07/02 08:32:16;;;;;;;35.03;19.00;;;18.10;99.90;;;18.24;100.00;97304.50;5038732;28;20049;-76
2023/07/02 08:34:43;;;;;;;37.22;20.08;;;18.20;99.90;;;18.08;100.00;97289.09;5043993;28;20449;-76
2023/07/02 08:37:10;;;;;;;33.10;18.20;;;18.30;99.90;;;18.07;100.00;97303.19;5040520;28;20076;-75
2023/07/02 08:39:39;;;;;;;35.90;19.38;;;18.30;99.90;;;18.03;100.00;97302.56;5041990;28;20057;-75
2023/07/02 08:42:07;;;;;;;29.52;17.92;;;18.30;99.90;;;18.54;100.00;97298.59;5042179;28;20044;-75
2023/07/02 08:44:35;;;;;;;39.42;20.73;;;18.50;99.90;;;17.95;100.00;97286.59;5041939;28;20111;-75
2023/07/02 08:47:03;;;;;;;34.28;18.52;;;18.50;99.90;;;18.54;100.00;97309.13;5039754;28;20080;-75
2023/07/02 08:49:30;;;;;;;38.05;19.65;;;18.20;99.90;;;18.05;100.00;97329.56;5042915;28;20627;-74
2023/07/02 08:51:58;;;;;;;30.30;17.77;;;18.10;99.90;;;17.82;100.00;97325.25;5038562;28;20130;-75
2023/07/02 08:54:25;;;;;;;36.60;20.88;;;17.80;99.90;;;17.60;100.00;97308.44;5044065;28;20128;-74
2023/07/02 08:56:53;;;;;;;34.85;21.02;;;17.80;99.90;;;17.66;100.00;97320.28;5041575;28;20067;-71
2023/07/02 08:59:20;;;;;;;38.65;21.65;;;17.80;99.90;;;17.85;100.00;97323.19;5040405;28;20057;-74
2023/07/02 09:01:49;;;;;;;39.10;19.92;;;18.00;99.90;;;18.83;100.00;97319.16;5040633;28;20048;-74
2023/07/02 09:04:24;;;;;;;39.70;20.55;;;18.70;99.90;;;18.66;100.00;97305.53;5018083;28;20072;-75
2023/07/02 09:07:07;;;;;;;38.75;22.17;;;19.20;99.90;;;19.67;100.00;97306.13;5032999;28;20190;-75
2023/07/02 09:09:50;;;;;;;38.28;20.65;;;19.70;99.90;;;19.81;100.00;97300.56;5035262;28;20048;-74
2023/07/02 09:12:28;;;;;;;33.45;19.13;;;19.80;99.90;;;20.47;100.00;97332.63;5040487;28;20037;-74
2023/07/02 09:15:06;;;;;;;30.98;18.80;;;20.40;99.90;;;20.41;100.00;97285.72;5040973;28;20056;-72
2023/07/02 09:17:36;;;;;;;32.13;19.05;;;20.60;99.90;;;20.57;100.00;97279.97;5038411;28;20049;-74
2023/07/02 09:20:08;;;;;;;31.30;18.90;;;20.80;99.90;;;20.77;100.00;97296.66;5039803;28;20052;-74
2023/07/02 09:22:39;;;;;;;31.10;18.02;;;20.50;99.90;;;19.93;100.00;97294.25;5041099;28;20057;-75
2023/07/02 09:25:06;;;;;;;28.20;18.17;;;20.30;99.90;;;19.27;100.00;97312.88;5044093;28;20103;-76
2023/07/02 09:27:41;;;;;;;35.92;20.80;;;19.80;99.90;;;18.75;100.00;97333.72;5019358;28;20057;-75
2023/07/02 09:30:15;;;;;;;36.58;19.83;;;19.40;99.90;;;18.60;100.00;97306.84;5040261;28;20047;-74
2023/07/02 09:32:47;;;;;;;32.95;20.23;;;19.00;99.90;;;18.63;100.00;97316.28;5039980;28;20041;-75
2023/07/02 09:35:14;;;;;;;32.77;18.60;;;18.80;99.90;;;19.02;100.00;97320.19;5037444;28;20558;-76
2023/07/02 09:37:43;;;;;;;41.17;22.20;;;18.90;99.90;;;19.45;100.00;97302.66;5040333;28;20053;-75
2023/07/02 09:40:11;;;;;;;30.92;18.50;;;19.90;99.90;;;20.39;100.00;97310.53;5042126;28;20049;-74
2023/07/02 09:42:40;;;;;;;30.80;18.50;;;20.50;99.90;;;21.29;100.00;97309.63;5026309;28;20775;-75
2023/07/02 09:45:10;;;;;;;28.77;18.15;;;20.60;99.90;;;21.14;100.00;97298.63;5027689;28;20535;-75
2023/07/02 09:47:47;;;;;;;29.15;17.90;;;20.70;99.90;;;19.97;100.00;97297.47;5045368;28;20053;-75
2023/07/02 09:50:15;;;;;;;34.08;19.38;;;20.40;99.90;;;19.76;100.00;97308.84;5043728;28;20138;-76
2023/07/02 09:52:46;;;;;;;33.03;20.42;;;20.10;99.90;;;19.24;100.00;97318.41;5047519;28;20073;-74
2023/07/02 09:55:14;;;;;;;31.50;19.10;;;20.10;99.90;;;18.83;100.00;97325.25;5025822;28;20111;-75
2023/07/02 09:57:44;;;;;;;33.10;19.83;;;19.30;99.90;;;19.23;100.00;97330.75;5041923;28;20509;-76
2023/07/02 10:00:12;;;;;;;36.83;20.77;;;19.10;99.90;;;19.58;100.00;97328.78;5046262;28;20501;-73
2023/07/02 10:02:39;;;;;;;25.48;17.10;;;20.00;99.90;;;20.86;100.00;97310.84;5044505;28;20040;-74
2023/07/02 10:05:07;;;;;;;27.45;16.48;;;20.60;99.90;;;21.72;100.00;97297.81;5048602;28;20053;-74
2023/07/02 10:07:34;;;;;;;24.85;14.52;;;21.10;99.90;;;20.78;100.00;97295.72;5044812;28;20131;-75
2023/07/02 10:10:01;;;;;;;26.70;16.33;;;21.30;99.90;;;20.60;100.00;97307.88;5045033;28;20207;-74